createdAt,value
2019-02-16T00:02:24.980Z,6.27
2019-02-16T00:05:05.101Z,6.33
2019-02-16T00:07:45.340Z,6.93
2019-02-16T00:10:25.262Z,6.07
2019-02-16T00:13:05.457Z,5.90
2019-02-16T00:15:45.800Z,6.27
2019-02-16T00:18:25.967Z,6.03
2019-02-16T00:21:05.940Z,5.60
2019-02-16T00:23:45.985Z,5.70
2019-02-16T00:26:26.421Z,5.80
2019-02-16T00:29:06.401Z,5.70
2019-02-16T00:31:46.592Z,5.47
2019-02-16T00:34:14.405Z,5.07
2019-02-16T00:36:42.223Z,4.97
2019-02-16T00:39:09.852Z,5.30
2019-02-16T00:41:37.536Z,4.87
2019-02-16T00:44:05.161Z,5.83
2019-02-16T00:46:33.984Z,4.93
2019-02-16T00:49:21.002Z,6.00
2019-02-16T00:52:01.502Z,5.57
2019-02-16T00:54:42.084Z,5.20
2019-02-16T00:57:22.062Z,4.57
2019-02-16T01:00:02.175Z,5.00
2019-02-16T01:02:42.276Z,4.77
2019-02-16T01:05:22.246Z,5.77
2019-02-16T01:08:02.421Z,5.13
2019-02-16T01:10:43.208Z,5.20
2019-02-16T01:13:23.845Z,4.93
2019-02-16T01:16:03.780Z,5.23
2019-02-16T01:18:44.020Z,5.23
2019-02-16T01:21:24.352Z,4.67
2019-02-16T01:24:04.579Z,4.80
2019-02-16T01:26:44.716Z,5.03
2019-02-16T01:29:24.814Z,4.20
2019-02-16T01:32:04.734Z,4.50
2019-02-16T01:34:44.988Z,3.80
2019-02-16T01:37:25.001Z,4.47
2019-02-16T01:40:05.169Z,4.40
2019-02-16T01:42:32.790Z,4.37
2019-02-16T01:45:19.821Z,5.07
2019-02-16T01:48:06.852Z,4.70
2019-02-16T01:50:53.905Z,5.00
2019-02-16T01:53:33.573Z,4.77
2019-02-16T01:56:13.783Z,4.57
2019-02-16T01:58:53.712Z,5.00
2019-02-16T02:01:33.695Z,4.60
2019-02-16T02:04:13.673Z,4.67
2019-02-16T02:06:53.725Z,4.80
2019-02-16T02:09:33.885Z,4.33
2019-02-16T02:12:14.257Z,4.67
2019-02-16T02:14:54.521Z,4.30
2019-02-16T02:17:34.258Z,4.50
2019-02-16T02:20:14.449Z,3.97
2019-02-16T02:22:54.604Z,4.00
2019-02-16T02:25:34.680Z,4.67
2019-02-16T02:28:14.884Z,3.77
2019-02-16T02:30:55.002Z,3.63
2019-02-16T02:33:35.143Z,4.13
2019-02-16T02:36:15.356Z,4.33
2019-02-16T02:38:55.323Z,4.40
2019-02-16T02:41:35.462Z,4.43
2019-02-16T02:44:15.581Z,4.20
2019-02-16T02:46:55.735Z,4.03
2019-02-16T02:49:35.965Z,3.83
2019-02-16T02:52:16.391Z,3.50
2019-02-16T02:54:56.675Z,3.53
2019-02-16T02:57:36.798Z,3.90
2019-02-16T03:00:17.054Z,3.83
2019-02-16T03:02:57.273Z,3.60
2019-02-16T03:05:37.256Z,3.70
2019-02-16T03:11:17.708Z,3.43
2019-02-16T03:13:45.372Z,3.10
2019-02-16T03:16:13.144Z,3.30
2019-02-16T03:18:40.720Z,3.47
2019-02-16T03:21:08.366Z,3.50
2019-02-16T03:23:36.133Z,3.63
2019-02-16T03:26:42.573Z,4.10
2019-02-16T03:29:49.029Z,3.80
2019-02-16T03:32:29.558Z,3.80
2019-02-16T03:35:09.597Z,3.43
2019-02-16T03:37:49.892Z,3.53
2019-02-16T03:40:30.104Z,4.13
2019-02-16T03:43:10.428Z,3.77
2019-02-16T03:45:50.049Z,3.70
2019-02-16T03:48:30.368Z,3.53
2019-02-16T03:51:10.382Z,3.90
2019-02-16T03:53:50.506Z,3.50
2019-02-16T03:56:30.724Z,3.80
2019-02-16T03:59:11.036Z,3.67
2019-02-16T04:01:51.393Z,3.93
2019-02-16T04:04:31.678Z,3.23
2019-02-16T04:07:12.431Z,3.90
2019-02-16T04:09:52.192Z,3.70
2019-02-16T04:12:32.466Z,3.80
2019-02-16T04:15:12.544Z,3.57
2019-02-16T04:17:52.676Z,3.57
2019-02-16T04:20:32.650Z,4.23
2019-02-16T04:23:13.029Z,3.90
2019-02-16T04:25:52.901Z,3.77
2019-02-16T04:28:33.077Z,3.43
2019-02-16T04:31:13.369Z,3.13
2019-02-16T04:33:53.437Z,3.40
2019-02-16T04:42:44.165Z,3.07
2019-02-16T04:45:24.402Z,3.30
2019-02-16T04:48:04.740Z,3.10
2019-02-16T04:50:44.883Z,3.50
2019-02-16T04:53:25.065Z,3.43
2019-02-16T04:56:05.048Z,3.60
2019-02-16T04:58:45.281Z,3.30
2019-02-16T05:01:25.968Z,3.60
2019-02-16T05:04:06.028Z,3.47
2019-02-16T05:06:46.081Z,3.00
2019-02-16T05:09:26.285Z,3.37
2019-02-16T05:12:06.983Z,3.07
2019-02-16T05:14:47.136Z,3.27
2019-02-16T05:17:27.192Z,3.20
2019-02-16T05:20:07.483Z,2.93
2019-02-16T05:22:48.209Z,3.40
2019-02-16T05:25:16.298Z,3.00
2019-02-16T05:28:03.343Z,3.20
2019-02-16T05:30:50.291Z,4.07
2019-02-16T05:33:37.320Z,4.60
2019-02-16T05:36:17.647Z,4.77
2019-02-16T05:38:57.896Z,4.27
2019-02-16T05:41:37.989Z,3.77
2019-02-16T05:44:18.245Z,3.73
2019-02-16T05:46:58.915Z,3.53
2019-02-16T05:49:39.054Z,3.70
2019-02-16T05:52:19.065Z,3.30
2019-02-16T05:54:59.295Z,3.60
2019-02-16T05:57:39.316Z,3.60
2019-02-16T06:00:22.382Z,3.60
2019-02-16T06:03:02.549Z,3.47
2019-02-16T06:05:42.575Z,3.83
2019-02-16T06:08:22.836Z,3.80
2019-02-16T06:11:03.291Z,3.90
2019-02-16T06:13:43.060Z,3.50
2019-02-16T06:16:23.168Z,6.93
2019-02-16T06:19:03.456Z,6.13
2019-02-16T06:21:43.546Z,7.17
2019-02-16T06:24:23.885Z,7.00
2019-02-16T06:27:04.020Z,9.87
2019-02-16T06:29:44.329Z,5.60
2019-02-16T06:32:11.944Z,3.20
2019-02-16T06:35:18.429Z,3.40
2019-02-16T06:37:58.545Z,3.50
2019-02-16T06:40:38.732Z,3.40
2019-02-16T06:43:18.816Z,2.63
2019-02-16T06:45:58.751Z,2.53
2019-02-16T06:48:38.884Z,2.97
2019-02-16T06:51:19.140Z,3.20
2019-02-16T06:53:59.316Z,3.87
2019-02-16T06:56:58.867Z,3.53
2019-02-16T06:59:39.133Z,3.10
2019-02-16T07:02:19.448Z,3.20
2019-02-16T07:04:59.036Z,3.67
2019-02-16T07:07:39.228Z,2.80
2019-02-16T07:10:19.474Z,2.50
2019-02-16T07:12:59.465Z,2.50
2019-02-16T07:15:39.785Z,3.20
2019-02-16T07:18:24.249Z,2.27
2019-02-16T07:20:51.877Z,2.80
2019-02-16T07:23:22.472Z,2.37
2019-02-16T07:25:48.856Z,2.57
2019-02-16T07:28:16.452Z,2.53
2019-02-16T07:30:44.192Z,2.60
2019-02-16T07:33:11.766Z,2.90
2019-02-16T07:35:39.439Z,3.20
2019-02-16T07:38:07.059Z,3.23
2019-02-16T07:40:34.780Z,3.87
2019-02-16T07:43:02.362Z,3.63
2019-02-16T07:45:59.016Z,3.13
2019-02-16T07:48:46.044Z,2.90
2019-02-16T07:51:18.967Z,2.73
2019-02-16T07:54:21.054Z,2.73
2019-02-16T07:56:58.688Z,3.13
2019-02-16T07:59:42.909Z,2.90
2019-02-16T08:02:15.980Z,2.93
2019-02-16T08:05:17.891Z,2.87
2019-02-16T08:08:05.596Z,2.70
2019-02-16T08:10:46.009Z,3.17
2019-02-16T08:13:31.732Z,2.77
2019-02-16T08:16:18.767Z,2.80
2019-02-16T08:19:05.856Z,3.13
2019-02-16T08:21:51.373Z,5.47
2019-02-16T08:24:29.616Z,28.63
2019-02-16T08:27:06.269Z,5.83
2019-02-16T08:29:59.289Z,3.60
2019-02-16T08:32:32.374Z,3.83
2019-02-16T08:35:07.931Z,3.93
2019-02-16T08:37:51.684Z,3.97
2019-02-16T08:40:47.903Z,4.20
2019-02-16T08:43:23.668Z,4.00
2019-02-16T08:46:16.760Z,3.80
2019-02-16T08:49:03.783Z,3.60
2019-02-16T08:51:44.592Z,7.83
2019-02-16T08:54:40.688Z,7.57
2019-02-16T08:57:25.548Z,5.43
2019-02-16T09:00:06.377Z,6.97
2019-02-16T09:02:51.748Z,6.93
2019-02-16T09:05:26.905Z,7.60
2019-02-16T09:08:16.733Z,7.17
2019-02-16T09:11:08.562Z,7.83
2019-02-16T09:13:58.236Z,7.50
2019-02-16T09:16:44.677Z,7.50
2019-02-16T09:19:30.245Z,7.00
2019-02-16T09:22:17.702Z,6.47
2019-02-16T09:25:03.324Z,6.70
2019-02-16T09:28:09.814Z,6.70
2019-02-16T09:31:02.600Z,7.00
2019-02-16T09:33:59.636Z,6.27
2019-02-16T09:36:52.481Z,6.83
2019-02-16T09:39:39.617Z,7.83
2019-02-16T09:42:36.908Z,7.37
2019-02-16T09:45:24.133Z,8.20
2019-02-16T09:48:30.583Z,7.17
2019-02-16T09:51:16.216Z,6.93
2019-02-16T09:54:16.161Z,7.47
2019-02-16T09:57:05.789Z,7.27
2019-02-16T10:00:05.618Z,7.30
2019-02-16T10:02:53.860Z,7.10
2019-02-16T10:05:52.874Z,7.13
2019-02-16T10:08:51.984Z,6.80
2019-02-16T10:11:51.173Z,5.67
2019-02-16T10:14:53.465Z,6.07
2019-02-16T10:17:45.724Z,6.33
2019-02-16T10:20:31.780Z,5.63
2019-02-16T10:23:17.872Z,5.40
2019-02-16T10:26:17.282Z,5.07
2019-02-16T10:29:04.701Z,5.27
2019-02-16T10:32:02.388Z,5.30
2019-02-16T10:35:05.052Z,5.80
2019-02-16T10:38:04.218Z,8.33
2019-02-16T10:44:02.889Z,9.08
2019-02-16T10:46:51.451Z,8.83
2019-02-16T10:49:51.128Z,9.33
2019-02-16T10:52:36.132Z,8.53
2019-02-16T10:55:35.976Z,9.48
2019-02-16T10:58:41.883Z,9.20
2019-02-16T11:01:37.404Z,9.33
2019-02-16T11:04:37.895Z,9.28
2019-02-16T11:07:26.292Z,9.90
2019-02-16T11:10:18.552Z,9.90
2019-02-16T11:13:08.436Z,9.43
2019-02-16T11:15:48.476Z,9.98
2019-02-16T11:18:54.906Z,10.38
2019-02-16T11:21:53.984Z,10.10
2019-02-16T11:24:56.092Z,10.03
2019-02-16T11:27:55.163Z,9.33
2019-02-16T11:30:54.877Z,9.63
2019-02-16T11:33:53.979Z,8.60
2019-02-16T11:36:53.344Z,9.03
2019-02-16T11:39:45.006Z,9.43
2019-02-16T11:42:44.931Z,8.83
2019-02-16T11:45:47.312Z,9.48
2019-02-16T11:48:49.910Z,9.03
2019-02-16T11:51:49.793Z,8.93
2019-02-16T11:54:49.145Z,9.70
2019-02-16T11:57:45.705Z,10.08
2019-02-16T12:00:47.944Z,9.93
2019-02-16T12:03:40.593Z,9.78
2019-02-16T12:06:32.761Z,10.48
2019-02-16T12:09:18.297Z,10.15
2019-02-16T12:12:17.374Z,10.15
2019-02-16T12:14:52.609Z,10.90
2019-02-16T12:17:38.336Z,10.08
2019-02-16T12:20:22.452Z,9.95
2019-02-16T12:23:13.170Z,10.32
2019-02-16T12:26:08.944Z,10.25
2019-02-16T12:28:54.761Z,10.35
2019-02-16T12:31:39.567Z,10.13
2019-02-16T12:34:25.400Z,10.38
2019-02-16T12:37:00.211Z,10.50
2019-02-16T12:39:40.852Z,10.08
2019-02-16T12:42:40.284Z,10.60
2019-02-16T12:45:26.202Z,10.28
2019-02-16T12:48:11.832Z,10.80
2019-02-16T12:50:59.587Z,10.32
2019-02-16T12:53:45.037Z,10.15
2019-02-16T12:56:30.356Z,10.35
2019-02-16T12:59:06.208Z,11.03
2019-02-16T13:01:56.033Z,11.43
2019-02-16T13:04:48.915Z,11.08
2019-02-16T13:07:22.351Z,11.25
2019-02-16T13:10:01.768Z,11.57
2019-02-16T13:12:47.646Z,12.00
2019-02-16T13:15:28.344Z,11.88
2019-02-16T13:18:15.420Z,12.50
2019-02-16T13:21:00.848Z,13.10
2019-02-16T13:23:46.514Z,13.10
2019-02-16T13:26:34.642Z,14.35
2019-02-16T13:29:33.673Z,14.00
2019-02-16T13:32:20.756Z,13.93
2019-02-16T13:35:16.723Z,15.72
2019-02-16T13:38:09.626Z,14.03
2019-02-16T13:41:02.852Z,13.78
2019-02-16T13:43:40.200Z,13.62
2019-02-16T13:46:25.530Z,14.58
2019-02-16T13:49:24.372Z,15.48
2019-02-16T13:52:17.173Z,17.67
2019-02-16T13:55:23.596Z,17.37
2019-02-16T13:58:25.633Z,16.95
2019-02-16T14:01:11.212Z,16.62
2019-02-16T14:03:49.264Z,16.65
2019-02-16T14:06:55.688Z,16.15
2019-02-16T14:09:54.832Z,17.55
2019-02-16T14:12:54.375Z,17.30
2019-02-16T14:15:53.774Z,18.52
2019-02-16T14:18:33.393Z,18.55
2019-02-16T14:21:13.734Z,16.50
2019-02-16T14:23:54.179Z,16.40
2019-02-16T14:26:33.741Z,16.75
2019-02-16T14:29:14.100Z,18.23
2019-02-16T14:31:53.807Z,19.00
2019-02-16T14:34:33.990Z,17.62
2019-02-16T14:37:39.277Z,16.52
2019-02-16T14:40:19.658Z,16.57
2019-02-16T14:43:01.581Z,17.60
2019-02-16T14:45:42.144Z,16.52
2019-02-16T14:48:22.067Z,17.67
2019-02-16T14:51:02.076Z,17.75
2019-02-16T14:53:42.347Z,17.37
2019-02-16T14:56:22.612Z,16.90
2019-02-16T14:58:50.326Z,16.87
2019-02-16T15:01:18.037Z,16.77
2019-02-16T15:03:45.822Z,16.27
2019-02-16T15:06:13.660Z,15.63
2019-02-16T15:08:41.819Z,15.83
2019-02-16T15:11:09.405Z,15.65
2019-02-16T15:13:37.018Z,14.60
2019-02-16T15:16:04.732Z,15.93
2019-02-16T15:18:32.380Z,16.65
2019-02-16T15:21:00.049Z,15.95
2019-02-16T15:23:27.764Z,16.42
2019-02-16T15:26:01.117Z,17.77
2019-02-16T15:28:24.853Z,17.52
2019-02-16T15:30:52.432Z,17.12
2019-02-16T15:33:20.708Z,15.83
2019-02-16T15:35:48.284Z,16.23
2019-02-16T15:38:16.126Z,16.42
2019-02-16T15:40:43.860Z,16.17
2019-02-16T15:43:11.594Z,17.85
2019-02-16T15:45:39.156Z,17.23
2019-02-16T15:48:06.784Z,17.52
2019-02-16T15:50:34.412Z,17.35
2019-02-16T15:53:02.085Z,17.17
2019-02-16T15:55:29.680Z,17.87
2019-02-16T15:57:57.314Z,17.17
2019-02-16T16:00:26.414Z,17.70
2019-02-16T16:02:54.013Z,17.95
2019-02-16T16:05:21.726Z,18.15
2019-02-16T16:08:09.105Z,17.82
2019-02-16T16:10:41.106Z,18.50
2019-02-16T16:13:28.205Z,17.30
2019-02-16T16:16:15.363Z,18.10
2019-02-16T16:19:14.504Z,18.23
2019-02-16T16:22:13.530Z,19.30
2019-02-16T16:24:49.900Z,22.43
2019-02-16T16:27:26.552Z,22.40
2019-02-16T16:30:11.869Z,20.20
2019-02-16T16:32:59.262Z,21.23
2019-02-16T16:35:44.800Z,21.70
2019-02-16T16:38:41.125Z,20.40
2019-02-16T16:41:21.862Z,19.03
2019-02-16T16:44:11.903Z,18.13
2019-02-16T16:47:04.718Z,13.77
2019-02-16T16:49:48.082Z,11.10
2019-02-16T16:52:29.520Z,9.77
2019-02-16T16:55:11.577Z,9.43
2019-02-16T16:58:04.671Z,8.67
2019-02-16T17:00:49.770Z,8.10
2019-02-16T17:03:41.336Z,8.30
2019-02-16T17:06:30.805Z,8.00
2019-02-16T17:09:16.112Z,8.03
2019-02-16T17:12:06.065Z,6.57
2019-02-16T17:14:43.502Z,9.90
2019-02-16T17:17:20.413Z,8.90
2019-02-16T17:20:16.560Z,9.10
2019-02-16T17:23:09.268Z,8.87
2019-02-16T17:26:02.024Z,6.90
2019-02-16T17:28:47.812Z,7.10
2019-02-16T17:31:23.488Z,8.13
2019-02-16T17:34:13.344Z,8.30
2019-02-16T17:37:03.476Z,7.37
2019-02-16T17:40:05.408Z,6.90
2019-02-16T17:42:58.192Z,8.33
2019-02-16T17:45:38.860Z,7.80
2019-02-16T17:48:34.648Z,8.13
2019-02-16T17:51:09.149Z,8.63
2019-02-16T17:54:08.149Z,8.67
2019-02-16T17:56:49.081Z,8.83
2019-02-16T17:59:25.227Z,7.93
2019-02-16T18:02:15.703Z,8.17
2019-02-16T18:05:02.844Z,8.50
2019-02-16T18:07:50.098Z,14.37
2019-02-16T18:10:36.541Z,7.97
2019-02-16T18:13:20.217Z,11.60
2019-02-16T18:16:22.134Z,11.10
2019-02-16T18:18:58.277Z,10.00
2019-02-16T18:21:51.072Z,8.27
2019-02-16T18:24:57.628Z,6.90
2019-02-16T18:28:04.135Z,7.00
2019-02-16T18:31:03.578Z,5.87
2019-02-16T18:34:05.716Z,6.70
2019-02-16T18:37:05.258Z,4.53
2019-02-16T18:40:10.815Z,4.80
2019-02-16T18:43:06.766Z,4.63
2019-02-16T18:45:52.348Z,5.30
2019-02-16T18:48:26.651Z,4.70
2019-02-16T18:51:13.835Z,5.40
2019-02-16T18:53:59.844Z,4.67
2019-02-16T18:56:43.959Z,4.27
2019-02-16T18:59:22.048Z,4.03
2019-02-16T19:01:59.243Z,4.80
2019-02-16T19:04:35.770Z,6.33
2019-02-16T19:07:11.960Z,5.17
2019-02-16T19:09:57.825Z,5.83
2019-02-16T19:12:36.397Z,4.67
2019-02-16T19:15:21.899Z,5.03
2019-02-16T19:18:08.019Z,4.30
2019-02-16T19:20:55.114Z,4.20
2019-02-16T19:23:54.656Z,4.07
2019-02-16T19:26:41.751Z,5.40
2019-02-16T19:29:18.777Z,5.40
2019-02-16T19:32:08.912Z,6.67
2019-02-16T19:34:56.130Z,5.43
2019-02-16T19:37:43.173Z,5.03
2019-02-16T19:40:26.212Z,4.07
2019-02-16T19:43:13.448Z,4.23
2019-02-16T19:46:06.266Z,4.00
2019-02-16T19:48:56.368Z,3.93
2019-02-16T19:51:34.088Z,4.23
2019-02-16T19:54:33.147Z,4.10
2019-02-16T19:57:26.565Z,3.87
2019-02-16T20:00:06.199Z,4.00
2019-02-16T20:02:53.304Z,3.83
2019-02-16T20:05:44.504Z,4.07
2019-02-16T20:08:40.741Z,3.70
2019-02-16T20:11:46.074Z,3.10
2019-02-16T20:14:44.992Z,3.50
2019-02-16T20:17:20.043Z,3.20
2019-02-16T20:20:05.409Z,3.67
2019-02-16T20:23:11.910Z,3.50
2019-02-16T20:26:18.385Z,3.63
2019-02-16T20:29:05.548Z,3.33
2019-02-16T20:32:12.018Z,3.53
2019-02-16T20:34:57.703Z,2.67
2019-02-16T20:37:57.641Z,2.70
2019-02-16T20:40:56.850Z,2.93
2019-02-16T20:43:47.509Z,2.77
2019-02-16T20:46:32.136Z,2.50
2019-02-16T20:49:25.105Z,3.07
2019-02-16T20:52:17.253Z,2.93
2019-02-16T20:55:02.476Z,3.23
2019-02-16T20:57:51.766Z,3.27
2019-02-16T21:00:53.981Z,2.70
2019-02-16T21:06:56.220Z,2.53
2019-02-16T21:09:43.998Z,2.60
2019-02-16T21:12:43.995Z,2.80
2019-02-16T21:15:49.338Z,2.60
2019-02-16T21:18:38.798Z,2.60
2019-02-16T21:21:37.981Z,2.70
2019-02-16T21:24:37.300Z,2.40
2019-02-16T21:27:27.821Z,3.00
2019-02-16T21:30:31.720Z,2.80
2019-02-16T21:33:38.181Z,2.90
2019-02-16T21:36:37.442Z,2.70
2019-02-16T21:39:35.139Z,3.03
2019-02-16T21:42:40.916Z,2.90
2019-02-16T21:45:40.346Z,2.57
2019-02-16T21:48:45.707Z,2.63
2019-02-16T21:51:47.785Z,3.00
2019-02-16T21:54:47.152Z,2.57
2019-02-16T21:57:38.929Z,2.57
2019-02-16T22:00:38.586Z,2.70
2019-02-16T22:03:37.759Z,2.70
2019-02-16T22:06:38.105Z,2.57
2019-02-16T22:09:40.856Z,3.07
2019-02-16T22:12:43.524Z,2.80
2019-02-16T22:15:23.359Z,3.00
2019-02-16T22:18:03.685Z,2.93
2019-02-16T22:23:25.905Z,3.20
2019-02-16T22:26:05.824Z,3.07
2019-02-16T22:28:45.994Z,3.00
2019-02-16T22:31:26.225Z,3.40
2019-02-16T22:34:06.372Z,2.90
2019-02-16T22:36:46.288Z,3.00
2019-02-16T22:39:26.324Z,3.13
2019-02-16T22:45:17.985Z,2.77
2019-02-16T22:47:58.104Z,2.40
2019-02-16T22:50:25.706Z,3.23
2019-02-16T22:52:53.324Z,2.77
2019-02-16T22:55:21.169Z,2.53
2019-02-16T22:57:48.848Z,2.93
2019-02-16T23:00:26.919Z,2.60
2019-02-16T23:02:54.917Z,2.50
2019-02-16T23:05:22.624Z,2.90
2019-02-16T23:07:50.285Z,2.90
2019-02-16T23:10:18.117Z,2.10
2019-02-16T23:12:45.980Z,3.23
2019-02-16T23:15:13.583Z,3.43
2019-02-16T23:17:41.180Z,3.30
2019-02-16T23:20:09.276Z,2.80
2019-02-16T23:22:36.853Z,2.93
2019-02-16T23:25:04.871Z,2.83
2019-02-16T23:27:32.492Z,2.70
2019-02-16T23:30:00.378Z,2.90
2019-02-16T23:32:27.909Z,2.90
2019-02-16T23:34:55.608Z,3.13
2019-02-16T23:37:23.204Z,3.03
2019-02-16T23:39:50.803Z,3.20
2019-02-16T23:42:18.734Z,3.20
2019-02-16T23:44:46.577Z,2.80
2019-02-16T23:47:33.796Z,2.73
2019-02-16T23:50:20.808Z,2.70
2019-02-16T23:53:01.209Z,2.47
2019-02-16T23:55:41.568Z,3.30
2019-02-16T23:58:22.261Z,3.47
